Time;durP1;ratioP1;P1;durP2;ratioP2;P2;SDS_P1;SDS_P2;PMS_P1;PMS_P2;Temp;Humidity;BMP_temperature;BMP_pressure;BME280_temperature;BME280_humidity;BME280_pressure;Samples;Min_cycle;Max_cycle;Signal;HPM_P1;HPM_P2
2022/03/12 00:02:12;;;;;;;4.72;2.47;;;;;;;-148.56;100.00;61375.16;5050097;28;20446;-30
2022/03/12 00:04:38;;;;;;;5.15;2.60;;;;;;;-148.56;100.00;61375.16;5047190;28;20826;-31
2022/03/12 00:07:11;;;;;;;3.80;2.55;;;;;;;-148.56;100.00;61375.16;5049150;28;20581;-26
2022/03/12 00:09:36;;;;;;;3.45;2.22;;;;;;;-148.56;100.00;61375.16;5046221;28;20048;-28
2022/03/12 00:12:03;;;;;;;6.13;2.60;;;;;;;-148.56;100.00;61375.16;5044564;28;20024;-28
2022/03/12 00:14:30;;;;;;;3.92;2.35;;;;;;;-148.56;100.00;61375.16;5047517;28;20055;-29
2022/03/12 00:16:55;;;;;;;3.28;2.30;;;;;;;-148.56;100.00;61375.16;5044386;28;20153;-30
2022/03/12 00:19:21;;;;;;;4.40;2.50;;;;;;;-148.56;100.00;61375.16;5041094;28;20502;-29
2022/03/12 00:21:47;;;;;;;2.80;2.25;;;;;;;-148.56;100.00;61375.16;5045768;28;20070;-28
2022/03/12 00:24:13;;;;;;;3.28;2.15;;;;;;;-148.56;100.00;61375.16;5047035;28;20035;-28
2022/03/12 00:26:41;;;;;;;3.53;2.25;;;;;;;-148.56;100.00;61375.16;5048332;28;20028;-30
2022/03/12 00:29:13;;;;;;;4.70;2.10;;;;;;;-148.56;100.00;61375.16;5048814;28;20502;-30
2022/03/12 00:31:39;;;;;;;2.75;2.05;;;;;;;-148.56;100.00;61375.16;5045173;28;20115;-28
2022/03/12 00:34:05;;;;;;;4.05;2.30;;;;;;;-148.56;100.00;61375.16;5047735;28;20029;-30
2022/03/12 00:36:30;;;;;;;3.13;2.10;;;;;;;-148.56;100.00;61375.16;5048834;28;20020;-31
2022/03/12 00:38:55;;;;;;;4.38;2.20;;;;;;;-148.56;100.00;61375.16;5044156;28;21055;-30
2022/03/12 00:41:21;;;;;;;3.75;2.00;;;;;;;-148.56;100.00;61375.16;5046068;28;20024;-29
2022/03/12 00:43:46;;;;;;;3.72;1.98;;;;;;;-148.56;100.00;61375.16;5046230;28;20032;-31
2022/03/12 00:46:12;;;;;;;2.97;2.03;;;;;;;-148.56;100.00;61375.16;5043903;28;20051;-30
2022/03/12 00:48:38;;;;;;;4.93;2.40;;;;;;;-148.56;100.00;61375.16;5043221;28;20033;-30
2022/03/12 00:51:04;;;;;;;3.75;2.10;;;;;;;-148.56;100.00;61375.16;5046990;28;20060;-27
2022/03/12 00:53:29;;;;;;;3.72;2.35;;;;;;;-148.56;100.00;61375.16;5044705;28;20151;-29
2022/03/12 00:55:55;;;;;;;3.80;2.35;;;;;;;-148.56;100.00;61375.16;5046710;28;20118;-31
2022/03/12 00:58:20;;;;;;;3.28;1.90;;;;;;;-148.56;100.00;61375.16;5043655;28;20033;-29
2022/03/12 01:00:46;;;;;;;3.75;1.88;;;;;;;-148.56;100.00;61375.16;5046430;28;20028;-30
2022/03/12 01:03:11;;;;;;;4.53;2.00;;;;;;;-148.56;100.00;61375.16;5047456;28;20574;-31
2022/03/12 01:05:49;;;;;;;3.88;2.47;;;;;;;-148.56;100.00;61375.16;5045110;28;20386;-31
2022/03/12 01:08:15;;;;;;;3.28;2.00;;;;;;;-148.56;100.00;61375.16;5043999;28;20032;-27
2022/03/12 01:10:41;;;;;;;3.08;1.88;;;;;;;-148.56;100.00;61375.16;5046405;28;20032;-32
2022/03/12 01:13:06;;;;;;;3.42;2.10;;;;;;;-148.56;100.00;61375.16;5044216;28;20047;-34
2022/03/12 01:15:32;;;;;;;3.05;2.00;;;;;;;-148.56;100.00;61375.16;5045506;28;20894;-31
2022/03/12 01:17:58;;;;;;;2.97;2.10;;;;;;;-148.56;100.00;61375.16;5042159;28;20036;-31
2022/03/12 01:20:24;;;;;;;2.70;1.95;;;;;;;-148.56;100.00;61375.16;5041006;28;20536;-30
2022/03/12 01:22:49;;;;;;;2.55;2.00;;;;;;;-148.56;100.00;61375.16;5050905;28;20296;-29
2022/03/12 01:25:15;;;;;;;4.10;2.13;;;;;;;-148.56;100.00;61375.16;5052265;28;20025;-30
2022/03/12 01:27:41;;;;;;;3.40;2.35;;;;;;;-148.56;100.00;61375.16;5053614;28;20028;-31
2022/03/12 01:30:07;;;;;;;3.30;1.92;;;;;;;-148.56;100.00;61375.16;5048676;28;20024;-33
2022/03/12 01:32:33;;;;;;;2.65;1.80;;;;;;;-148.56;100.00;61375.16;5051198;28;20032;-30
2022/03/12 01:34:58;;;;;;;2.88;2.03;;;;;;;-148.56;100.00;61375.16;5054253;28;20918;-32
2022/03/12 01:37:24;;;;;;;2.78;2.00;;;;;;;-148.56;100.00;61375.16;5055652;28;20591;-30
2022/03/12 01:39:49;;;;;;;2.22;1.83;;;;;;;-148.56;100.00;61375.16;5052583;28;20076;-30
2022/03/12 01:42:15;;;;;;;4.13;1.83;;;;;;;-148.56;100.00;61375.16;5056022;28;20107;-31
2022/03/12 01:44:41;;;;;;;3.50;2.30;;;;;;;-148.56;100.00;61375.16;5051741;28;20036;-31
2022/03/12 01:47:07;;;;;;;3.78;1.90;;;;;;;-148.56;100.00;61375.16;5050602;28;20047;-27
2022/03/12 01:49:32;;;;;;;3.25;2.10;;;;;;;-148.56;100.00;61375.16;5054459;28;20082;-28
2022/03/12 01:51:58;;;;;;;2.88;1.90;;;;;;;-148.56;100.00;61375.16;5046254;28;20039;-31
2022/03/12 01:54:25;;;;;;;2.00;1.70;;;;;;;-148.56;100.00;61375.16;5042194;28;20029;-29
2022/03/12 01:56:51;;;;;;;2.63;1.80;;;;;;;-148.56;100.00;61375.16;5050312;28;20078;-30
2022/03/12 01:59:17;;;;;;;3.05;1.75;;;;;;;-148.56;100.00;61375.16;5047844;28;20021;-30
2022/03/12 02:01:42;;;;;;;2.80;2.00;;;;;;;-148.56;100.00;61375.16;5047205;28;20035;-31
2022/03/12 02:04:08;;;;;;;2.72;1.90;;;;;;;-148.56;100.00;61375.16;5047586;28;21812;-29
2022/03/12 02:06:34;;;;;;;2.85;1.70;;;;;;;-148.56;100.00;61375.16;5047116;28;20394;-26
2022/03/12 02:09:00;;;;;;;2.28;1.75;;;;;;;-148.56;100.00;61375.16;5041618;28;20073;-28
2022/03/12 02:11:27;;;;;;;4.57;2.15;;;;;;;-148.56;100.00;61375.16;5044591;28;20543;-27
2022/03/12 02:14:12;;;;;;;2.13;1.60;;;;;;;-148.56;100.00;61375.16;5048299;28;20054;-29
2022/03/12 02:16:38;;;;;;;3.65;2.00;;;;;;;-148.56;100.00;61375.16;5046124;28;20033;-28
2022/03/12 02:19:04;;;;;;;3.08;2.00;;;;;;;-148.56;100.00;61375.16;5045159;28;20033;-28
2022/03/12 02:21:50;;;;;;;1.92;1.73;;;;;;;-148.56;100.00;61375.16;5042841;28;20064;-31
2022/03/12 02:24:16;;;;;;;3.65;1.83;;;;;;;-148.56;100.00;61375.16;5047456;28;20035;-28
2022/03/12 02:26:43;;;;;;;3.47;2.17;;;;;;;-148.56;100.00;61375.16;5043132;28;20099;-32
2022/03/12 02:29:12;;;;;;;4.75;2.30;;;;;;;-148.56;100.00;61375.16;5046007;28;20036;-30
2022/03/12 02:31:43;;;;;;;2.97;2.30;;;;;;;-148.56;100.00;61375.16;5043665;28;20029;-28
2022/03/12 02:34:10;;;;;;;2.17;1.70;;;;;;;-148.56;100.00;61375.16;5043683;28;20032;-32
2022/03/12 02:36:36;;;;;;;2.47;1.80;;;;;;;-148.56;100.00;61375.16;5044365;28;20067;-30
2022/03/12 02:39:04;;;;;;;2.65;1.70;;;;;;;-148.56;100.00;61375.16;5041886;28;20159;-27
2022/03/12 02:41:30;;;;;;;4.68;2.05;;;;;;;-148.56;100.00;61375.16;5041846;28;20067;-26
2022/03/12 02:43:55;;;;;;;3.33;1.90;;;;;;;-148.56;100.00;61375.16;5048918;28;20959;-30
2022/03/12 02:46:22;;;;;;;2.20;1.70;;;;;;;-148.56;100.00;61375.16;5048745;28;20039;-24
2022/03/12 02:48:49;;;;;;;3.88;2.00;;;;;;;-148.56;100.00;61375.16;5048330;28;20036;-28
2022/03/12 02:51:16;;;;;;;2.55;1.80;;;;;;;-148.56;100.00;61375.16;5048208;28;20055;-26
2022/03/12 02:53:42;;;;;;;2.17;1.70;;;;;;;-148.56;100.00;61375.16;5045748;28;20494;-30
2022/03/12 02:56:07;;;;;;;2.25;1.73;;;;;;;-148.56;100.00;61375.16;5041522;28;20049;-29
2022/03/12 02:58:33;;;;;;;2.47;1.67;;;;;;;-148.56;100.00;61375.16;5045259;28;20471;-31
2022/03/12 03:00:59;;;;;;;2.25;1.75;;;;;;;-148.56;100.00;61375.16;5044182;28;20665;-25
2022/03/12 03:03:24;;;;;;;2.67;1.85;;;;;;;-148.56;100.00;61375.16;5045055;28;20091;-27
2022/03/12 03:05:54;;;;;;;1.73;1.60;;;;;;;-148.56;100.00;61375.16;5050772;28;20021;-27
2022/03/12 03:08:21;;;;;;;1.70;1.52;;;;;;;-148.56;100.00;61375.16;5044147;28;21009;-28
2022/03/12 03:10:51;;;;;;;2.35;1.63;;;;;;;-148.56;100.00;61375.16;5046534;28;20078;-30
2022/03/12 03:13:20;;;;;;;2.53;1.77;;;;;;;-148.56;100.00;61375.16;5047027;28;20032;-30
2022/03/12 03:16:08;;;;;;;2.03;1.83;;;;;;;-148.56;100.00;61375.16;5043568;28;20868;-33
2022/03/12 03:18:35;;;;;;;1.90;1.63;;;;;;;-148.56;100.00;61375.16;5043451;28;20020;-30
2022/03/12 03:21:01;;;;;;;2.95;1.98;;;;;;;-148.56;100.00;61375.16;5038937;28;20025;-32
2022/03/12 03:23:28;;;;;;;2.10;1.83;;;;;;;-148.56;100.00;61375.16;5043774;28;20028;-30
2022/03/12 03:25:54;;;;;;;2.25;1.70;;;;;;;-148.56;100.00;61375.16;5044997;28;20063;-29
2022/03/12 03:28:20;;;;;;;1.95;1.52;;;;;;;-148.56;100.00;61375.16;5045075;28;20111;-32
2022/03/12 03:30:45;;;;;;;2.50;1.65;;;;;;;-148.56;100.00;61375.16;5044591;28;20047;-29
2022/03/12 03:33:21;;;;;;;2.50;1.88;;;;;;;-148.56;100.00;61375.16;5050699;28;20753;-31
2022/03/12 03:35:47;;;;;;;3.28;1.60;;;;;;;-148.56;100.00;61375.16;5048971;28;20032;-26
2022/03/12 03:38:13;;;;;;;2.00;1.80;;;;;;;-148.56;100.00;61375.16;5043103;28;20040;-27
2022/03/12 03:40:38;;;;;;;2.45;1.85;;;;;;;-148.56;100.00;61375.16;5042824;28;20055;-30
2022/03/12 03:43:07;;;;;;;1.95;1.50;;;;;;;-148.56;100.00;61375.16;5039605;28;20378;-28
2022/03/12 03:45:33;;;;;;;2.22;1.50;;;;;;;-148.56;100.00;61375.16;5042139;28;20040;-28
2022/03/12 03:47:58;;;;;;;4.38;1.55;;;;;;;-148.56;100.00;61375.16;5040979;28;20032;-31
2022/03/12 03:50:25;;;;;;;3.15;1.60;;;;;;;-148.56;100.00;61375.16;5040211;28;20028;-29
2022/03/12 03:53:03;;;;;;;2.58;1.70;;;;;;;-148.56;100.00;61375.16;5042142;28;20025;-34
2022/03/12 03:55:32;;;;;;;2.33;1.67;;;;;;;-148.56;100.00;61375.16;5042279;28;20048;-30
2022/03/12 03:57:58;;;;;;;3.10;1.83;;;;;;;-148.56;100.00;61375.16;5044171;28;20032;-29
2022/03/12 04:00:24;;;;;;;2.20;1.80;;;;;;;-148.56;100.00;61375.16;5042533;28;20102;-31
2022/03/12 04:02:55;;;;;;;2.38;1.70;;;;;;;-148.56;100.00;61375.16;5044362;28;20032;-26
2022/03/12 04:05:22;;;;;;;2.60;1.50;;;;;;;-148.56;100.00;61375.16;5041431;28;20385;-30
2022/03/12 04:07:47;;;;;;;2.28;1.80;;;;;;;-148.56;100.00;61375.16;5045926;28;20050;-29
2022/03/12 04:10:13;;;;;;;3.22;1.90;;;;;;;-148.56;100.00;61375.16;5041306;28;20036;-31
2022/03/12 04:12:39;;;;;;;2.17;1.48;;;;;;;-148.56;100.00;61375.16;5041223;28;20040;-31
2022/03/12 04:15:05;;;;;;;2.00;1.58;;;;;;;-148.56;100.00;61375.16;5042923;28;20478;-30
2022/03/12 04:17:32;;;;;;;2.42;1.60;;;;;;;-148.56;100.00;61375.16;5042890;28;20656;-32
2022/03/12 04:19:57;;;;;;;3.13;1.67;;;;;;;-148.56;100.00;61375.16;5041319;28;20571;-31
2022/03/12 04:22:23;;;;;;;1.88;1.65;;;;;;;-148.56;100.00;61375.16;5041773;28;20039;-30
2022/03/12 04:24:49;;;;;;;2.53;1.90;;;;;;;-148.56;100.00;61375.16;5044311;28;20020;-30
2022/03/12 04:27:14;;;;;;;2.85;1.60;;;;;;;-148.56;100.00;61375.16;5038219;28;20028;-29
2022/03/12 04:29:40;;;;;;;2.25;1.52;;;;;;;-148.56;100.00;61375.16;5042749;28;20040;-27
2022/03/12 04:32:08;;;;;;;2.13;1.50;;;;;;;-148.56;100.00;61375.16;5042111;28;20036;-33
2022/03/12 04:34:35;;;;;;;2.83;1.40;;;;;;;-148.56;100.00;61375.16;5040253;28;20109;-31
2022/03/12 04:37:00;;;;;;;1.55;1.45;;;;;;;-148.56;100.00;61375.16;5042168;28;20954;-33
2022/03/12 04:39:26;;;;;;;2.13;1.58;;;;;;;-148.56;100.00;61375.16;5040984;28;20032;-32
2022/03/12 04:41:51;;;;;;;3.63;1.70;;;;;;;-148.56;100.00;61375.16;5039363;28;20029;-31
2022/03/12 04:44:17;;;;;;;1.83;1.50;;;;;;;-148.56;100.00;61375.16;5035621;28;20036;-31
2022/03/12 04:46:43;;;;;;;2.30;1.60;;;;;;;-148.56;100.00;61375.16;5039764;28;20623;-27
2022/03/12 04:49:08;;;;;;;2.25;1.60;;;;;;;-148.56;100.00;61375.16;5040253;28;20016;-31
2022/03/12 04:51:34;;;;;;;2.20;1.58;;;;;;;-148.56;100.00;61375.16;5040891;28;20058;-29
2022/03/12 04:53:59;;;;;;;2.33;1.70;;;;;;;-148.56;100.00;61375.16;5039072;28;20031;-29
2022/03/12 04:56:25;;;;;;;2.38;1.70;;;;;;;-148.56;100.00;61375.16;5040627;28;20035;-29
2022/03/12 04:58:53;;;;;;;2.47;1.50;;;;;;;-148.56;100.00;61375.16;5040324;28;20036;-27
2022/03/12 05:01:20;;;;;;;1.63;1.45;;;;;;;-148.56;100.00;61375.16;5040885;28;20104;-25
2022/03/12 05:03:45;;;;;;;2.67;1.55;;;;;;;-148.56;100.00;61375.16;5043814;28;20036;-27
2022/03/12 05:06:13;;;;;;;2.20;1.70;;;;;;;-148.56;100.00;61375.16;5041755;28;20025;-30
2022/03/12 05:08:38;;;;;;;3.33;1.60;;;;;;;-148.56;100.00;61375.16;5048629;28;20048;-35
2022/03/12 05:11:04;;;;;;;2.28;1.60;;;;;;;-148.56;100.00;61375.16;5048734;28;20815;-29
2022/03/12 05:13:29;;;;;;;2.03;1.50;;;;;;;-148.56;100.00;61375.16;5032998;28;21675;-30
2022/03/12 05:15:57;;;;;;;1.73;1.60;;;;;;;-148.56;100.00;61375.16;5048517;28;20060;-30
2022/03/12 05:18:23;;;;;;;2.92;1.50;;;;;;;-148.56;100.00;61375.16;5049790;28;20111;-33
2022/03/12 05:20:49;;;;;;;1.83;1.30;;;;;;;-148.56;100.00;61375.16;5048853;28;20032;-28
2022/03/12 05:23:15;;;;;;;1.88;1.55;;;;;;;-148.56;100.00;61375.16;5052668;28;20040;-29
2022/03/12 05:25:42;;;;;;;1.83;1.50;;;;;;;-148.56;100.00;61375.16;5050049;28;20020;-32
2022/03/12 05:28:22;;;;;;;3.25;1.70;;;;;;;-148.56;100.00;61375.16;5049827;28;20036;-28
2022/03/12 05:30:48;;;;;;;2.03;1.52;;;;;;;-148.56;100.00;61375.16;5046746;28;20041;-28
2022/03/12 05:33:16;;;;;;;1.65;1.33;;;;;;;-148.56;100.00;61375.16;5052506;28;20622;-31
2022/03/12 05:35:42;;;;;;;2.17;1.63;;;;;;;-148.56;100.00;61375.16;5048957;28;20032;-30
2022/03/12 05:38:08;;;;;;;2.55;1.60;;;;;;;-148.56;100.00;61375.16;5049060;28;20028;-33
2022/03/12 05:40:38;;;;;;;2.85;1.63;;;;;;;-148.56;100.00;61375.16;5045439;28;20081;-29
2022/03/12 05:43:06;;;;;;;1.90;1.58;;;;;;;-148.56;100.00;61375.16;5050843;28;20040;-29
2022/03/12 05:45:31;;;;;;;2.63;1.42;;;;;;;-148.56;100.00;61375.16;5041479;28;20044;-27
2022/03/12 05:47:58;;;;;;;2.00;1.50;;;;;;;-148.56;100.00;61375.16;5039354;28;20051;-29
2022/03/12 05:50:23;;;;;;;2.10;1.50;;;;;;;-148.56;100.00;61375.16;5038112;28;20032;-30
2022/03/12 05:52:49;;;;;;;2.67;1.60;;;;;;;-148.56;100.00;61375.16;5041092;28;20069;-29
2022/03/12 05:55:19;;;;;;;1.50;1.40;;;;;;;-148.56;100.00;61375.16;5040833;28;20082;-33
2022/03/12 05:57:45;;;;;;;2.53;1.50;;;;;;;-148.56;100.00;61375.16;5043156;28;20032;-29
2022/03/12 06:00:11;;;;;;;1.92;1.48;;;;;;;-148.56;100.00;61375.16;5040556;28;20032;-31
2022/03/12 06:02:43;;;;;;;2.08;1.40;;;;;;;-148.56;100.00;61375.16;5040496;28;20036;-31
2022/03/12 06:05:11;;;;;;;1.92;1.50;;;;;;;-148.56;100.00;61375.16;5040086;28;20039;-30
2022/03/12 06:07:38;;;;;;;2.38;1.60;;;;;;;-148.56;100.00;61375.16;5040807;28;20041;-30
2022/03/12 06:10:05;;;;;;;2.50;1.50;;;;;;;-148.56;100.00;61375.16;5039284;28;20085;-32
2022/03/12 06:12:30;;;;;;;1.85;1.50;;;;;;;-148.56;100.00;61375.16;5037681;28;20074;-34
2022/03/12 06:14:57;;;;;;;1.92;1.50;;;;;;;-148.56;100.00;61375.16;5041898;28;20033;-30
2022/03/12 06:17:26;;;;;;;3.03;1.70;;;;;;;-148.56;100.00;61375.16;5041605;28;20027;-31
2022/03/12 06:19:52;;;;;;;3.63;1.67;;;;;;;-148.56;100.00;61375.16;5041623;28;20710;-33
2022/03/12 06:22:17;;;;;;;1.92;1.52;;;;;;;-148.56;100.00;61375.16;5047785;28;20032;-30
2022/03/12 06:24:43;;;;;;;1.83;1.50;;;;;;;-148.56;100.00;61375.16;5047584;28;20031;-29
2022/03/12 06:27:08;;;;;;;1.80;1.58;;;;;;;-148.56;100.00;61375.16;5048257;28;20538;-30
2022/03/12 06:29:35;;;;;;;2.20;1.55;;;;;;;-148.56;100.00;61375.16;5045971;28;20066;-29
2022/03/12 06:32:01;;;;;;;2.20;1.33;;;;;;;-148.56;100.00;61375.16;5047559;28;20032;-32
2022/03/12 06:34:27;;;;;;;3.53;1.75;;;;;;;-148.56;100.00;61375.16;5045933;28;20177;-26
2022/03/12 06:36:52;;;;;;;1.63;1.40;;;;;;;-148.56;100.00;61375.16;5042402;28;20790;-26
2022/03/12 06:39:17;;;;;;;2.83;1.70;;;;;;;-148.56;100.00;61375.16;5042799;28;20039;-30
2022/03/12 06:41:44;;;;;;;1.80;1.45;;;;;;;-148.56;100.00;61375.16;5044293;28;20051;-30
2022/03/12 06:44:11;;;;;;;2.67;1.55;;;;;;;-148.56;100.00;61375.16;5043818;28;23064;-31
2022/03/12 06:46:36;;;;;;;1.63;1.50;;;;;;;-148.56;100.00;61375.16;5044468;28;20927;-29
2022/03/12 06:49:04;;;;;;;2.20;1.42;;;;;;;-148.56;100.00;61375.16;5043809;28;20040;-30
2022/03/12 06:51:29;;;;;;;1.67;1.48;;;;;;;-148.56;100.00;61375.16;5044050;28;20644;-29
2022/03/12 06:53:54;;;;;;;1.90;1.52;;;;;;;-148.56;100.00;61375.16;5041928;28;20040;-28
2022/03/12 06:56:21;;;;;;;2.60;1.60;;;;;;;-148.56;100.00;61375.16;5042730;28;20033;-29
2022/03/12 06:58:46;;;;;;;8.27;1.40;;;;;;;-148.56;100.00;61375.16;5046406;28;20032;-30
2022/03/12 07:01:12;;;;;;;2.13;1.63;;;;;;;-148.56;100.00;61375.16;5042836;28;20955;-28
2022/03/12 07:03:37;;;;;;;2.35;1.73;;;;;;;-148.56;100.00;61375.16;5046458;28;20509;-27
2022/03/12 07:06:03;;;;;;;23.85;2.47;;;;;;;-148.56;100.00;61375.16;5054289;28;20033;-30
2022/03/12 07:08:28;;;;;;;6.07;2.15;;;;;;;-148.56;100.00;61375.16;5044981;28;20033;-30
2022/03/12 07:10:54;;;;;;;6.05;2.63;;;;;;;-148.56;100.00;61375.16;5048263;28;20028;-32
2022/03/12 07:13:19;;;;;;;7.57;2.90;;;;;;;-148.56;100.00;61375.16;5047670;28;20032;-29
2022/03/12 07:15:45;;;;;;;8.68;3.05;;;;;;;-148.56;100.00;61375.16;5046703;28;20028;-31
2022/03/12 07:18:10;;;;;;;12.15;3.92;;;;;;;-148.56;100.00;61375.16;5044597;28;20021;-33
2022/03/12 07:20:36;;;;;;;9.82;3.08;;;;;;;-148.56;100.00;61375.16;5046732;28;20031;-27
2022/03/12 07:23:01;;;;;;;7.53;3.22;;;;;;;-148.56;100.00;61375.16;5047087;28;20343;-27
2022/03/12 07:25:27;;;;;;;8.40;3.10;;;;;;;-148.56;100.00;61375.16;5047049;28;20033;-33
2022/03/12 07:27:54;;;;;;;11.85;3.28;;;;;;;-148.56;100.00;61375.16;5046056;28;20550;-25
2022/03/12 07:30:21;;;;;;;6.15;2.85;;;;;;;-148.56;100.00;61375.16;5043211;28;20075;-29
2022/03/12 07:32:46;;;;;;;5.15;2.47;;;;;;;-148.56;100.00;61375.16;5049367;28;20029;-29
2022/03/12 07:35:13;;;;;;;8.77;3.13;;;;;;;-148.56;100.00;61375.16;5042544;28;20050;-29
2022/03/12 07:37:39;;;;;;;6.75;3.05;;;;;;;-148.56;100.00;61375.16;5035872;28;20063;-25
2022/03/12 07:40:05;;;;;;;6.95;3.15;;;;;;;-148.56;100.00;61375.16;5041910;28;20032;-31
2022/03/12 07:42:30;;;;;;;6.63;2.80;;;;;;;-148.56;100.00;61375.16;5041182;28;20110;-32
2022/03/12 07:44:56;;;;;;;6.47;2.90;;;;;;;-148.56;100.00;61375.16;5045897;28;20116;-28
2022/03/12 07:47:21;;;;;;;10.15;3.03;;;;;;;-148.56;100.00;61375.16;5048195;28;20632;-28
2022/03/12 07:49:47;;;;;;;6.07;3.10;;;;;;;-148.56;100.00;61375.16;5049825;28;20036;-33
2022/03/12 07:52:12;;;;;;;6.32;3.00;;;;;;;-148.56;100.00;61375.16;5048345;28;20501;-28
2022/03/12 07:54:37;;;;;;;5.47;3.00;;;;;;;-148.56;100.00;61375.16;5041035;28;20782;-29
2022/03/12 07:57:03;;;;;;;6.32;3.15;;;;;;;-148.56;100.00;61375.16;5028072;28;20115;-26
2022/03/12 07:59:29;;;;;;;6.25;2.88;;;;;;;-148.56;100.00;61375.16;5031302;28;21004;-26
2022/03/12 08:01:55;;;;;;;10.32;3.20;;;;;;;-148.56;100.00;61375.16;5034282;28;20060;-28
2022/03/12 08:04:21;;;;;;;7.13;3.80;;;;;;;-148.56;100.00;61375.16;5028466;28;20039;-33
2022/03/12 08:06:46;;;;;;;7.70;3.70;;;;;;;-148.56;100.00;61375.16;5029460;28;20611;-30
2022/03/12 08:09:12;;;;;;;7.05;4.03;;;;;;;-148.56;100.00;61375.16;5028215;28;20028;-28
2022/03/12 08:11:37;;;;;;;7.68;4.25;;;;;;;-148.56;100.00;61375.16;5031303;28;20051;-28
2022/03/12 08:14:07;;;;;;;7.88;4.53;;;;;;;-148.56;100.00;61375.16;5039611;28;20043;-29
2022/03/12 08:16:33;;;;;;;6.90;4.38;;;;;;;-148.56;100.00;61375.16;5046912;28;20028;-30
2022/03/12 08:19:04;;;;;;;8.25;4.13;;;;;;;-148.56;100.00;61375.16;5048738;28;20028;-31
2022/03/12 08:21:30;;;;;;;6.72;3.65;;;;;;;-148.56;100.00;61375.16;5048497;28;21252;-26
2022/03/12 08:23:56;;;;;;;9.07;3.70;;;;;;;-148.56;100.00;61375.16;5043451;28;20040;-30
2022/03/12 08:26:21;;;;;;;8.77;3.92;;;;;;;-148.56;100.00;61375.16;5042495;28;21010;-30
2022/03/12 08:28:46;;;;;;;8.65;4.15;;;;;;;-148.56;100.00;61375.16;5045170;28;20047;-29
2022/03/12 08:31:12;;;;;;;7.63;3.42;;;;;;;-148.56;100.00;61375.16;5049873;28;20032;-27
2022/03/12 08:33:37;;;;;;;7.85;3.83;;;;;;;-148.56;100.00;61375.16;5049442;28;20135;-29
2022/03/12 08:36:06;;;;;;;6.70;3.60;;;;;;;-148.56;100.00;61375.16;5050166;28;20075;-28
2022/03/12 08:38:34;;;;;;;5.65;3.42;;;;;;;-148.56;100.00;61375.16;5046713;28;20105;-30
2022/03/12 08:41:00;;;;;;;5.93;3.42;;;;;;;-148.56;100.00;61375.16;5045137;28;20029;-29
2022/03/12 08:43:26;;;;;;;8.07;3.40;;;;;;;-148.56;100.00;61375.16;5045623;28;20094;-28
2022/03/12 08:45:51;;;;;;;5.18;3.30;;;;;;;-148.56;100.00;61375.16;5044154;28;20028;-30
2022/03/12 08:48:16;;;;;;;6.60;3.22;;;;;;;-148.56;100.00;61375.16;5053859;28;20028;-31
2022/03/12 08:50:43;;;;;;;5.38;3.03;;;;;;;-148.56;100.00;61375.16;5058225;28;20617;-30
2022/03/12 08:53:09;;;;;;;7.60;3.70;;;;;;;-148.56;100.00;61375.16;5055776;28;20063;-30
2022/03/12 08:55:35;;;;;;;5.25;3.20;;;;;;;-148.56;100.00;61375.16;5040166;28;20038;-29
2022/03/12 08:58:00;;;;;;;5.00;3.20;;;;;;;-148.56;100.00;61375.16;5056293;28;20032;-30
2022/03/12 09:00:26;;;;;;;7.55;3.67;;;;;;;-148.56;100.00;61375.16;5057956;28;20040;-30
2022/03/12 09:02:51;;;;;;;7.50;4.03;;;;;;;-148.56;100.00;61375.16;5054887;28;20025;-30
2022/03/12 09:05:16;;;;;;;19.48;14.90;;;;;;;-148.56;100.00;61375.16;5054959;28;20141;-30
2022/03/12 09:07:42;;;;;;;17.15;13.90;;;;;;;-148.56;100.00;61375.16;5055137;28;20035;-29
2022/03/12 09:10:10;;;;;;;20.52;14.02;;;;;;;-148.56;100.00;61375.16;5059059;28;20032;-29
2022/03/12 09:12:36;;;;;;;18.00;13.75;;;;;;;-148.56;100.00;61375.16;5040315;28;20853;-24
2022/03/12 09:15:01;;;;;;;17.13;13.57;;;;;;;-148.56;100.00;61375.16;5018850;28;20039;-26
2022/03/12 09:17:27;;;;;;;23.77;12.40;;;;;;;-148.56;100.00;61375.16;5009543;28;20089;-25
2022/03/12 09:19:52;;;;;;;12.93;10.90;;;;;;;-148.56;100.00;61375.16;5006853;28;21086;-25
2022/03/12 09:22:18;;;;;;;14.73;10.80;;;;;;;-148.56;100.00;61375.16;5008910;28;20846;-29
2022/03/12 09:24:43;;;;;;;16.25;11.38;;;;;;;-148.56;100.00;61375.16;5009632;28;20139;-28
2022/03/12 09:27:08;;;;;;;15.32;10.40;;;;;;;-148.56;100.00;61375.16;5008493;28;20213;-27
2022/03/12 09:29:35;;;;;;;14.63;9.63;;;;;;;-148.56;100.00;61375.16;5007998;28;20443;-28
2022/03/12 09:32:10;;;;;;;14.43;10.48;;;;;;;-148.56;100.00;61375.16;5011797;28;20761;-30
2022/03/12 09:34:35;;;;;;;16.20;9.73;;;;;;;-148.56;100.00;61375.16;5012296;28;20056;-29
2022/03/12 09:37:02;;;;;;;16.67;11.00;;;;;;;-148.56;100.00;61375.16;5011873;28;20046;-26
2022/03/12 09:39:27;;;;;;;14.27;10.55;;;;;;;-148.56;100.00;61375.16;5011300;28;22333;-26
2022/03/12 09:41:52;;;;;;;15.43;9.10;;;;;;;-148.56;100.00;61375.16;5009607;28;20048;-28
2022/03/12 09:44:18;;;;;;;12.25;7.30;;;;;;;-148.56;100.00;61375.16;5000946;28;20033;-28
2022/03/12 09:46:43;;;;;;;21.75;8.27;;;;;;;-148.56;100.00;61375.16;5006570;28;21741;-27
2022/03/12 09:49:11;;;;;;;25.30;9.32;;;;;;;-148.56;100.00;61375.16;5007178;28;20032;-28
2022/03/12 09:51:37;;;;;;;30.30;8.68;;;;;;;-148.56;100.00;61375.16;5012894;28;20031;-26
2022/03/12 09:54:03;;;;;;;28.15;8.80;;;;;;;-148.56;100.00;61375.16;5018085;28;20048;-28
2022/03/12 09:56:29;;;;;;;16.98;7.35;;;;;;;-148.56;100.00;61375.16;5016151;28;20044;-27
2022/03/12 09:58:54;;;;;;;22.33;7.63;;;;;;;-148.56;100.00;61375.16;5016495;28;20036;-25
2022/03/12 10:01:20;;;;;;;23.83;7.60;;;;;;;-148.56;100.00;61375.16;5018293;28;20032;-26
2022/03/12 10:03:45;;;;;;;16.65;6.85;;;;;;;-148.56;100.00;61375.16;5014522;28;20589;-29
2022/03/12 10:06:11;;;;;;;19.80;7.03;;;;;;;-148.56;100.00;61375.16;5017286;28;20040;-31
2022/03/12 10:08:37;;;;;;;19.40;6.45;;;;;;;-148.56;100.00;61375.16;5014303;28;20052;-27
2022/03/12 10:11:04;;;;;;;12.15;6.60;;;;;;;-148.56;100.00;61375.16;5011697;28;20051;-27
2022/03/12 10:13:30;;;;;;;11.27;5.88;;;;;;;-148.56;100.00;61375.16;5049495;28;20064;-29
2022/03/12 10:15:55;;;;;;;15.07;6.28;;;;;;;-148.56;100.00;61375.16;5063196;28;20467;-27
2022/03/12 10:18:22;;;;;;;15.68;5.90;;;;;;;-148.56;100.00;61375.16;5053926;28;20058;-26
2022/03/12 10:20:48;;;;;;;14.05;5.63;;;;;;;-148.56;100.00;61375.16;5058603;28;20035;-30
2022/03/12 10:23:13;;;;;;;13.75;5.78;;;;;;;-148.56;100.00;61375.16;5056385;28;20532;-32
2022/03/12 10:25:39;;;;;;;13.18;5.43;;;;;;;-148.56;100.00;61375.16;5047772;28;20028;-29
2022/03/12 10:28:04;;;;;;;14.95;5.15;;;;;;;-148.56;100.00;61375.16;5044236;28;20047;-27
2022/03/12 10:30:30;;;;;;;12.23;5.40;;;;;;;-148.56;100.00;61375.16;5050355;28;20398;-28
2022/03/12 10:32:55;;;;;;;12.75;4.55;;;;;;;-148.56;100.00;61375.16;5050568;28;20028;-26
2022/03/12 10:35:21;;;;;;;9.18;4.50;;;;;;;-148.56;100.00;61375.16;5049555;28;20024;-28
2022/03/12 10:37:47;;;;;;;9.38;4.88;;;;;;;-148.56;100.00;61375.16;5041663;28;20025;-29
2022/03/12 10:40:20;;;;;;;14.43;4.85;;;;;;;-148.56;100.00;61375.16;5050334;28;20032;-28
2022/03/12 10:43:06;;;;;;;12.25;4.63;;;;;;;-148.56;100.00;61375.16;5049002;28;20028;-32
2022/03/12 10:45:41;;;;;;;16.77;4.70;;;;;;;-148.56;100.00;61375.16;5045420;28;20037;-30
2022/03/12 10:48:07;;;;;;;8.60;4.55;;;;;;;-148.56;100.00;61375.16;5056070;28;20062;-30
2022/03/12 10:50:41;;;;;;;8.30;4.18;;;;;;;-148.56;100.00;61375.16;5058243;28;20048;-27
2022/03/12 10:53:06;;;;;;;9.00;3.92;;;;;;;-148.56;100.00;61375.16;5059255;28;20821;-34
2022/03/12 10:55:37;;;;;;;7.78;3.67;;;;;;;-148.56;100.00;61375.16;5060366;28;20048;-28
2022/03/12 10:58:13;;;;;;;7.25;4.05;;;;;;;-148.56;100.00;61375.16;5058393;28;20107;-30
2022/03/12 11:00:45;;;;;;;11.13;4.20;;;;;;;-148.56;100.00;61375.16;5055705;28;20067;-31
2022/03/12 11:03:13;;;;;;;7.95;3.92;;;;;;;-148.56;100.00;61375.16;5059110;28;20056;-32
2022/03/12 11:05:39;;;;;;;6.18;3.78;;;;;;;-148.56;100.00;61375.16;5059188;28;20031;-31